TAF KSWF
AMD KSWF 080233Z 0803/0906 VRB03KT P6SM BKN080 FM081800 13005KT P6SM OVC050 FM082200 VRB04KT P6SM BKN040 FM090300 30007KT P6SM SCT040 BKN070 AMD NOT SKED=
METAR KSWF
WC KSWF
WS KSWF
WV KSWF